Flight Track Log - Related Links

Times and Time Zones

All times are in EDT time to prevent confusion due to time zone crossing. See the SWA1044 flight status page for this flight to view local times or setup timezone preferences in your user account.

Time Position Orientation Groundspeed Altitude Reporting Facility
EDT Latitude Longitude Course Direction KTS MPH feet Rate Location/Type
Tue 07:53:49 AM 44.8911 -93.2489 276° West 167 192 2,500  Level FAA TRACON SMA TRACON (SMA)
Tue 07:54:10 AM 44.8936 -93.2803 276° West 210 242 3,400 3,073 Climbing FAA TRACON SMA TRACON (SMA)
Tue 07:54:30 AM 44.8900 -93.3075 259° West 230 265 4,600 3,450 Climbing FAA TRACON SMA TRACON (SMA)
Tue 07:54:50 AM 44.8806 -93.3414 249° West 246 283 5,700 3,300 Climbing FAA TRACON SMA TRACON (SMA)
Tue 07:55:10 AM 44.8622 -93.3592 215° Southwest 262 302 6,800 3,750 Climbing FAA TRACON SMA TRACON (SMA)
Tue 07:55:30 AM 44.8417 -93.3722 204° Southwest 265 305 8,200 4,500 Climbing FAA TRACON SMA TRACON (SMA)
Tue 07:55:50 AM 44.8147 -93.3875 202° Southwest 271 312 9,800 4,800 Climbing FAA TRACON SMA TRACON (SMA)
Tue 07:56:10 AM 44.7933 -93.4006 203° Southwest 271 312 11,400 4,800 Climbing FAA TRACON SMA TRACON (SMA)
Tue 07:56:30 AM 44.7733 -93.4131 204° Southwest 262 302 13,000 4,650 Climbing FAA TRACON SMA TRACON (SMA)
Tue 07:56:50 AM 44.7483 -93.4286 204° Southwest 255 293 14,500 4,050 Climbing FAA TRACON SMA TRACON (SMA)
Tue 07:57:10 AM 44.7278 -93.4408 203° Southwest 258 297 15,700 3,600 Climbing FAA TRACON SMA TRACON (SMA)
Tue 07:57:30 AM 44.7075 -93.4531 203° Southwest 260 299 16,900 3,150 Climbing FAA TRACON SMA TRACON (SMA)
Tue 07:57:50 AM 44.6819 -93.4692 204° Southwest 260 299 17,800 1,650 Climbing FAA TRACON SMA TRACON (SMA)
Tue 07:58:10 AM 44.6589 -93.4825 202° Southwest 280 322 18,000 600 Climbing FAA TRACON SMA TRACON (SMA)
Tue 07:58:30 AM 44.6339 -93.4978 204° Southwest 311 358 18,200 1,650 Climbing FAA TRACON SMA TRACON (SMA)
Tue 07:58:50 AM 44.5997 -93.5189 204° Southwest 344 396 19,100 2,700 Climbing FAA TRACON SMA TRACON (SMA)
Tue 07:59:10 AM 44.5719 -93.5364 204° Southwest 356 410 20,000 2,550 Climbing FAA TRACON SMA TRACON (SMA)
Tue 07:59:30 AM 44.5425 -93.5525 201° Southwest 364 419 20,800 2,847 Climbing FAA TRACON SMA TRACON (SMA)
Tue 08:00:09 AM 44.4769 -93.5928 204° Southwest 374 430 22,800 3,100 Climbing FAA TRACON SMA TRACON (SMA)
Tue 08:00:30 AM 44.4392 -93.6114 199° South 377 434 23,900 2,780 Climbing FAA TRACON SMA TRACON (SMA)
Tue 08:00:50 AM 44.4069 -93.6228 194° South 382 440 24,700 2,400 Climbing FAA TRACON SMA TRACON (SMA)
Tue 08:01:10 AM 44.3753 -93.6353 196° South 385 443 25,500 2,308 Climbing FAA TRACON SMA TRACON (SMA)
Tue 08:01:29 AM 44.3428 -93.6469 194° South 389 448 26,200 2,462 Climbing FAA TRACON SMA TRACON (SMA)
Tue 08:01:49 AM 44.3019 -93.6631 196° South 392 451 27,100 2,700 Climbing FAA TRACON SMA TRACON (SMA)
Tue 08:02:09 AM 44.2697 -93.6761 196° South 393 452 28,000 3,000 Climbing FAA TRACON SMA TRACON (SMA)
Tue 08:02:29 AM 44.2375 -93.6886 196° South 392 451 29,100 2,850 Climbing FAA TRACON SMA TRACON (SMA)
Tue 08:02:49 AM 44.1989 -93.7047 197° South 382 440 29,900 1,317 Climbing FAA TRACON SMA TRACON (SMA)
Tue 08:03:10 AM 44.1678 -93.7142 192° South 372 428 30,000 150 Climbing FAA TRACON SMA TRACON (SMA)
Tue 08:03:29 AM 44.1375 -93.7264 196° South 368 423 30,000  Level FAA TRACON SMA TRACON (SMA)
Tue 08:03:49 AM 44.1075 -93.7403 198° South 367 422 30,000  Level FAA TRACON SMA TRACON (SMA)
Tue 08:04:09 AM 44.0681 -93.7486 189° South 372 428 30,000  Level FAA TRACON SMA TRACON (SMA)
Tue 08:04:29 AM 44.0358 -93.7492 181° South 376 433 30,000  Level FAA TRACON SMA TRACON (SMA)
Tue 08:04:50 AM 43.9944 -93.7444 175° South 384 442 30,000  Level FAA TRACON SMA TRACON (SMA)
Tue 08:05:09 AM 43.9608 -93.7383 173° South 387 445 30,000  Level FAA TRACON SMA TRACON (SMA)
Tue 08:05:47 AM 43.9106 -93.7258 170° South 394 453 30,000  Level Minneapolis Center
Tue 08:06:48 AM 43.8053 -93.7106 174° South 387 445 30,000  Level Minneapolis Center
Tue 08:07:49 AM 43.6981 -93.6958 174° South 388 447 30,000  Level Minneapolis Center
Tue 08:08:50 AM 43.5706 -93.6794 175° South 387 445 30,000  Level Minneapolis Center
Tue 08:09:51 AM 43.4711 -93.6200 157° South 411 473 30,000  Level Minneapolis Center
Tue 08:10:52 AM 43.3872 -93.5214 139° Southeast 408 470 30,000  Level Minneapolis Center
Tue 08:11:53 AM 43.2864 -93.4708 160° South 390 449 30,000  Level Minneapolis Center
Tue 08:12:54 AM 43.1828 -93.4292 164° South 390 449 30,000  Level Minneapolis Center
Tue 08:13:56 AM 43.0733 -93.3850 164° South 410 472 30,000  Level Minneapolis Center
Tue 08:14:57 AM 42.9611 -93.3378 163° South 423 487 30,000  Level Minneapolis Center
Tue 08:15:58 AM 42.8253 -93.2878 165° South 426 490 30,000  Level Minneapolis Center
Tue 08:16:59 AM 42.7100 -93.2714 174° South 423 487 30,000  Level Minneapolis Center
Tue 08:18:00 AM 42.5978 -93.2989 190° South 414 476 30,000  Level Minneapolis Center
Tue 08:19:01 AM 42.4897 -93.3472 198° South 413 475 30,000  Level Minneapolis Center
Tue 08:20:02 AM 42.3808 -93.3936 197° South 413 475 30,000  Level Minneapolis Center
Tue 08:21:03 AM 42.2792 -93.4561 204° Southwest 407 468 30,000  Level Minneapolis Center
Tue 08:22:17 AM 42.1844 -93.5358 212° Southwest 404 465 30,000  Level Minneapolis Center
Tue 08:23:18 AM 42.0511 -93.6483 212° Southwest 406 467 30,000  Level Minneapolis Center
Tue 08:24:19 AM 41.9556 -93.7264 211° Southwest 404 465 30,000  Level Minneapolis Center
Tue 08:25:32 AM 41.8672 -93.8039 213° Southwest 401 461 30,000  Level Minneapolis Center
Tue 08:26:46 AM 41.7328 -93.9144 212° Southwest 397 457 30,000  Level Minneapolis Center
Tue 08:27:47 AM 41.6425 -93.9892 212° Southwest 399 459 30,000  Level Minneapolis Center
Tue 08:28:49 AM 41.5478 -94.0681 212° Southwest 404 465 30,000  Level Minneapolis Center
Tue 08:29:50 AM 41.4331 -94.1614 211° Southwest 405 466 30,000  Level Minneapolis Center
Tue 08:30:51 AM 41.3492 -94.2300 212° Southwest 405 466 30,000  Level Minneapolis Center
Tue 08:31:52 AM 41.2514 -94.3097 212° Southwest 408 470 30,000 -197 Level Minneapolis Center
Tue 08:32:53 AM 41.1439 -94.3975 212° Southwest 412 474 29,600 -689 Descending Minneapolis Center
Tue 08:33:54 AM 41.0483 -94.4758 212° Southwest 410 472 28,600 -780 Descending Minneapolis Center
Tue 08:34:56 AM 40.9542 -94.5517 211° Southwest 404 465 28,000 -634 Descending Minneapolis Center
Tue 08:35:57 AM 40.8467 -94.6378 211° Southwest 400 460 27,300 -787 Descending Minneapolis Center
Tue 08:36:58 AM 40.7542 -94.7119 211° Southwest 394 453 26,400 -639 Descending Minneapolis Center
Tue 08:37:59 AM 40.6636 -94.7831 211° Southwest 385 443 26,000 -195 Descending Minneapolis Center
Tue 08:39:01 AM 40.5758 -94.8536 211° Southwest 375 432 26,000 -293 Level Minneapolis Center
Tue 08:40:02 AM 40.4886 -94.9222 211° Southwest 370 426 25,400 -836 Descending Minneapolis Center
Tue 08:41:03 AM 40.4042 -94.9892 211° Southwest 364 419 24,300 -1,033 Descending Minneapolis Center
Tue 08:42:04 AM 40.3206 -95.0564 212° Southwest 358 412 23,300 -984 Descending Minneapolis Center
Tue 08:43:05 AM 40.2381 -95.1206 211° Southwest 349 402 22,300 -1,022 Descending Minneapolis Center
Tue 08:44:19 AM 40.1589 -95.1833 211° Southwest 339 390 21,000 -1,778 Descending Minneapolis Center
Tue 08:45:20 AM 40.0653 -95.2567 211° Southwest 330 380 18,300 -2,508 Descending Minneapolis Center
Tue 08:46:21 AM 39.9753 -95.3269 211° Southwest 317 365 15,900 -1,623 Descending Minneapolis Center
Tue 08:47:22 AM 39.8978 -95.3867 211° Southwest 320 368 15,000 -934 Descending Minneapolis Center
Tue 08:48:23 AM 39.8106 -95.3836 178° South 341 392 14,000 -1,268 Descending Minneapolis Center
Tue 08:49:25 AM 39.7386 -95.2992 138° Southeast 348 400 12,400 -1,756 Descending Minneapolis Center
Tue 08:50:26 AM 39.6947 -95.1964 119° Southeast 356 410 10,400 -1,426 Descending Minneapolis Center
Tue 08:51:27 AM 39.6522 -95.0922 118° Southeast 339 390 9,500 -1,279 Descending Minneapolis Center
Tue 08:52:42 AM 39.5983 -94.9672 119° Southeast 299 344 7,500 -1,467 Descending Kansas City Center
Tue 08:53:42 AM 39.5597 -94.8778 119° Southeast 296 341 6,200 -744 Descending Kansas City Center
Tue 08:54:43 AM 39.5328 -94.7803 110° East 250 288 6,000 -537 Descending Kansas City Center
Tue 08:55:45 AM 39.5136 -94.7006 107° East 240 276 5,100 -912 Descending Kansas City Center
Tue 08:56:48 AM 39.4647 -94.6783 161° South 204 235 4,100 -1,161 Descending Kansas City Center
Tue 08:57:49 AM 39.4061 -94.6961 193° South 189 217 2,700 -1,033 Descending Kansas City Center
Tue 08:58:50 AM 39.3708 -94.7064 193° South 138 159 2,000 -677 Descending Kansas City Center
Tue 08:59:53 AM 39.3353 -94.7169 193° South 119 137 1,300 -480 Descending Kansas City Center
Tue 09:00:55 AM 39.2992 -94.7278 193° South 122 140 1,000 -290 Descending Kansas City Center

Login

Don't have an account? Register now (free) for customized features, flight alerts, and more!